Skip Navigation Links Skip Navigation Links

Current Weather

Winchester Regional, Winchester, Va.

For information only: do not use for flight planning or navigation.
Latest weather
Observation time Wednesday, December 2, 2020 10:55 PM EST
Local time Wednesday, December 2, 2020 11:08 PM EST
Flight conditions Visual Meteorological Conditions
Winds
Wind speed calm
Visibility 10 mi.
Sky condition
Ceiling unlimited
Sky clear
Temperature 32°F
Dewpoint 18°F
Altimeter 30.23 in.Hg
Derived measurements
Relative humidity 55%
Wind chill 32°F
Density altitude -1406 ft.
Remarks
Fully automated report.
Automated weather observing station with precipitation discriminator.
METAR KOKV 030355Z AUTO 00000KT 10SM CLR 00/M08 A3023 RMK AO2

Settings

Location code

InnerDrive.Weather 4.0.6770.0 Release CLR 4.0.30319.42000
Copyright ©2018 Inner Drive Technology. All rights reserved. Portions Copyright ©1986-2018 David Braverman.

Find weather

Site navigation


Skip Navigation Links

Place info

Page info

PayPal - The safer, easier way to pay online!

Return home.

Copyright ©2020 Inner Drive Technology. Purveyors of fine, hand-crafted computer software. Page printed 2020-12-03T04:08:17 UTC.